sensor_id;sensor_type;location;lat;lon;timestamp;P1;durP1;ratioP1;P2;durP2;ratioP2
5060;SDS011;2549;52.128;21.068;2022-09-09T00:06:45;9.37;;;4.97;;
5060;SDS011;2549;52.128;21.068;2022-09-09T00:09:21;9.73;;;5.00;;
5060;SDS011;2549;52.128;21.068;2022-09-09T00:14:51;10.07;;;5.40;;
5060;SDS011;2549;52.128;21.068;2022-09-09T00:17:35;9.97;;;4.83;;
5060;SDS011;2549;52.128;21.068;2022-09-09T00:20:13;13.63;;;6.40;;
5060;SDS011;2549;52.128;21.068;2022-09-09T00:23:48;9.97;;;5.27;;
5060;SDS011;2549;52.128;21.068;2022-09-09T00:25:59;14.43;;;5.87;;
5060;SDS011;2549;52.128;21.068;2022-09-09T00:31:28;13.70;;;5.57;;
5060;SDS011;2549;52.128;21.068;2022-09-09T00:34:09;13.03;;;5.77;;
5060;SDS011;2549;52.128;21.068;2022-09-09T00:36:39;7.40;;;4.70;;
5060;SDS011;2549;52.128;21.068;2022-09-09T00:42:30;9.87;;;5.13;;
5060;SDS011;2549;52.128;21.068;2022-09-09T00:48:00;8.50;;;5.03;;
5060;SDS011;2549;52.128;21.068;2022-09-09T00:53:19;10.27;;;6.00;;
5060;SDS011;2549;52.128;21.068;2022-09-09T00:55:53;13.40;;;6.40;;
5060;SDS011;2549;52.128;21.068;2022-09-09T00:58:27;8.27;;;5.43;;
5060;SDS011;2549;52.128;21.068;2022-09-09T01:03:49;9.73;;;6.00;;
5060;SDS011;2549;52.128;21.068;2022-09-09T01:12:03;15.83;;;6.47;;
5060;SDS011;2549;52.128;21.068;2022-09-09T01:14:42;10.23;;;6.00;;
5060;SDS011;2549;52.128;21.068;2022-09-09T01:20:03;11.50;;;5.90;;
5060;SDS011;2549;52.128;21.068;2022-09-09T01:22:40;12.37;;;6.07;;
5060;SDS011;2549;52.128;21.068;2022-09-09T01:28:11;24.83;;;6.30;;
5060;SDS011;2549;52.128;21.068;2022-09-09T01:30:43;15.80;;;5.60;;
5060;SDS011;2549;52.128;21.068;2022-09-09T01:33:17;17.27;;;5.73;;
5060;SDS011;2549;52.128;21.068;2022-09-09T01:38:23;12.40;;;6.77;;
5060;SDS011;2549;52.128;21.068;2022-09-09T01:40:51;14.30;;;7.30;;
5060;SDS011;2549;52.128;21.068;2022-09-09T01:43:19;15.80;;;5.90;;
5060;SDS011;2549;52.128;21.068;2022-09-09T01:45:48;8.97;;;6.60;;
5060;SDS011;2549;52.128;21.068;2022-09-09T01:48:18;15.33;;;7.30;;
5060;SDS011;2549;52.128;21.068;2022-09-09T01:50:46;9.20;;;5.73;;
5060;SDS011;2549;52.128;21.068;2022-09-09T01:53:13;10.00;;;5.80;;
5060;SDS011;2549;52.128;21.068;2022-09-09T01:55:45;18.77;;;6.10;;
5060;SDS011;2549;52.128;21.068;2022-09-09T02:01:08;11.53;;;6.57;;
5060;SDS011;2549;52.128;21.068;2022-09-09T02:03:58;22.03;;;6.37;;
5060;SDS011;2549;52.128;21.068;2022-09-09T02:06:36;18.60;;;7.30;;
5060;SDS011;2549;52.128;21.068;2022-09-09T02:09:06;13.80;;;5.80;;
5060;SDS011;2549;52.128;21.068;2022-09-09T02:11:36;13.83;;;6.70;;
5060;SDS011;2549;52.128;21.068;2022-09-09T02:14:11;19.37;;;6.87;;
5060;SDS011;2549;52.128;21.068;2022-09-09T02:19:25;13.63;;;7.00;;
5060;SDS011;2549;52.128;21.068;2022-09-09T02:21:59;10.40;;;6.60;;
5060;SDS011;2549;52.128;21.068;2022-09-09T02:24:28;12.37;;;7.00;;
5060;SDS011;2549;52.128;21.068;2022-09-09T02:26:57;12.23;;;6.90;;
5060;SDS011;2549;52.128;21.068;2022-09-09T02:29:28;11.23;;;7.43;;
5060;SDS011;2549;52.128;21.068;2022-09-09T02:32:15;15.17;;;7.37;;
5060;SDS011;2549;52.128;21.068;2022-09-09T02:34:56;12.90;;;7.53;;
5060;SDS011;2549;52.128;21.068;2022-09-09T02:37:27;12.47;;;7.27;;
5060;SDS011;2549;52.128;21.068;2022-09-09T02:39:59;14.43;;;6.70;;
5060;SDS011;2549;52.128;21.068;2022-09-09T02:42:28;11.20;;;7.23;;
5060;SDS011;2549;52.128;21.068;2022-09-09T02:44:55;13.83;;;7.90;;
5060;SDS011;2549;52.128;21.068;2022-09-09T02:47:24;14.27;;;7.53;;
5060;SDS011;2549;52.128;21.068;2022-09-09T02:55:35;13.10;;;7.60;;
5060;SDS011;2549;52.128;21.068;2022-09-09T02:58:09;11.60;;;6.60;;
5060;SDS011;2549;52.128;21.068;2022-09-09T03:00:38;9.87;;;6.40;;
5060;SDS011;2549;52.128;21.068;2022-09-09T03:03:06;11.53;;;7.70;;
5060;SDS011;2549;52.128;21.068;2022-09-09T03:05:35;7.70;;;5.80;;
5060;SDS011;2549;52.128;21.068;2022-09-09T03:08:03;14.13;;;7.10;;
5060;SDS011;2549;52.128;21.068;2022-09-09T03:10:32;11.00;;;7.10;;
5060;SDS011;2549;52.128;21.068;2022-09-09T03:12:59;9.13;;;6.60;;
5060;SDS011;2549;52.128;21.068;2022-09-09T03:15:26;15.00;;;6.37;;
5060;SDS011;2549;52.128;21.068;2022-09-09T03:17:56;11.20;;;7.30;;
5060;SDS011;2549;52.128;21.068;2022-09-09T03:20:24;13.97;;;7.10;;
5060;SDS011;2549;52.128;21.068;2022-09-09T03:22:52;9.03;;;6.40;;
5060;SDS011;2549;52.128;21.068;2022-09-09T03:25:20;11.03;;;6.53;;
5060;SDS011;2549;52.128;21.068;2022-09-09T03:27:50;11.20;;;6.47;;
5060;SDS011;2549;52.128;21.068;2022-09-09T03:30:23;9.60;;;5.80;;
5060;SDS011;2549;52.128;21.068;2022-09-09T03:32:51;11.43;;;7.00;;
5060;SDS011;2549;52.128;21.068;2022-09-09T03:35:19;8.97;;;6.00;;
5060;SDS011;2549;52.128;21.068;2022-09-09T03:37:45;13.50;;;6.60;;
5060;SDS011;2549;52.128;21.068;2022-09-09T03:40:12;10.40;;;6.00;;
5060;SDS011;2549;52.128;21.068;2022-09-09T03:42:40;11.53;;;6.70;;
5060;SDS011;2549;52.128;21.068;2022-09-09T03:45:07;9.30;;;6.30;;
5060;SDS011;2549;52.128;21.068;2022-09-09T03:47:36;15.13;;;7.27;;
5060;SDS011;2549;52.128;21.068;2022-09-09T03:50:04;9.73;;;6.60;;
5060;SDS011;2549;52.128;21.068;2022-09-09T03:52:35;8.60;;;6.50;;
5060;SDS011;2549;52.128;21.068;2022-09-09T03:55:03;9.23;;;6.37;;
5060;SDS011;2549;52.128;21.068;2022-09-09T03:57:31;9.47;;;6.07;;
5060;SDS011;2549;52.128;21.068;2022-09-09T04:00:10;10.20;;;7.20;;
5060;SDS011;2549;52.128;21.068;2022-09-09T04:02:37;10.93;;;5.83;;
5060;SDS011;2549;52.128;21.068;2022-09-09T04:05:05;10.90;;;5.97;;
5060;SDS011;2549;52.128;21.068;2022-09-09T04:07:33;8.10;;;6.03;;
5060;SDS011;2549;52.128;21.068;2022-09-09T04:09:59;9.13;;;6.13;;
5060;SDS011;2549;52.128;21.068;2022-09-09T04:12:27;8.90;;;5.80;;
5060;SDS011;2549;52.128;21.068;2022-09-09T04:14:53;11.83;;;6.40;;
5060;SDS011;2549;52.128;21.068;2022-09-09T04:17:20;8.73;;;6.03;;
5060;SDS011;2549;52.128;21.068;2022-09-09T04:19:47;9.13;;;6.37;;
5060;SDS011;2549;52.128;21.068;2022-09-09T04:22:14;10.27;;;6.60;;
5060;SDS011;2549;52.128;21.068;2022-09-09T04:24:41;6.10;;;5.50;;
5060;SDS011;2549;52.128;21.068;2022-09-09T04:27:13;9.80;;;5.70;;
5060;SDS011;2549;52.128;21.068;2022-09-09T04:29:40;9.27;;;5.27;;
5060;SDS011;2549;52.128;21.068;2022-09-09T04:32:07;7.67;;;5.33;;
5060;SDS011;2549;52.128;21.068;2022-09-09T04:34:34;7.63;;;5.10;;
5060;SDS011;2549;52.128;21.068;2022-09-09T04:37:01;9.60;;;5.30;;
5060;SDS011;2549;52.128;21.068;2022-09-09T04:39:27;6.40;;;5.43;;
5060;SDS011;2549;52.128;21.068;2022-09-09T04:41:55;6.30;;;5.43;;
5060;SDS011;2549;52.128;21.068;2022-09-09T04:44:22;8.90;;;5.30;;
5060;SDS011;2549;52.128;21.068;2022-09-09T04:46:49;7.63;;;6.13;;
5060;SDS011;2549;52.128;21.068;2022-09-09T04:49:16;8.50;;;5.50;;
5060;SDS011;2549;52.128;21.068;2022-09-09T04:51:43;10.70;;;5.60;;
5060;SDS011;2549;52.128;21.068;2022-09-09T04:54:10;12.20;;;5.90;;
5060;SDS011;2549;52.128;21.068;2022-09-09T04:56:37;5.37;;;4.87;;
5060;SDS011;2549;52.128;21.068;2022-09-09T04:59:04;8.03;;;4.83;;
5060;SDS011;2549;52.128;21.068;2022-09-09T05:01:31;7.33;;;5.53;;
5060;SDS011;2549;52.128;21.068;2022-09-09T05:03:58;8.80;;;4.27;;
5060;SDS011;2549;52.128;21.068;2022-09-09T05:06:25;5.70;;;4.60;;
5060;SDS011;2549;52.128;21.068;2022-09-09T05:08:52;7.07;;;5.17;;
5060;SDS011;2549;52.128;21.068;2022-09-09T05:13:48;8.93;;;5.60;;
5060;SDS011;2549;52.128;21.068;2022-09-09T05:16:16;9.13;;;4.40;;
5060;SDS011;2549;52.128;21.068;2022-09-09T05:18:44;8.47;;;4.70;;
5060;SDS011;2549;52.128;21.068;2022-09-09T05:21:13;17.00;;;4.43;;
5060;SDS011;2549;52.128;21.068;2022-09-09T05:23:40;8.23;;;5.17;;
5060;SDS011;2549;52.128;21.068;2022-09-09T05:26:08;5.73;;;4.43;;
5060;SDS011;2549;52.128;21.068;2022-09-09T05:28:42;10.70;;;5.70;;
5060;SDS011;2549;52.128;21.068;2022-09-09T05:31:10;6.43;;;4.50;;
5060;SDS011;2549;52.128;21.068;2022-09-09T05:33:40;4.60;;;4.20;;
5060;SDS011;2549;52.128;21.068;2022-09-09T05:36:10;5.47;;;5.00;;
5060;SDS011;2549;52.128;21.068;2022-09-09T05:38:41;8.17;;;4.70;;
5060;SDS011;2549;52.128;21.068;2022-09-09T05:41:09;6.80;;;4.30;;
5060;SDS011;2549;52.128;21.068;2022-09-09T05:43:42;9.00;;;4.37;;
5060;SDS011;2549;52.128;21.068;2022-09-09T05:46:17;7.37;;;5.00;;
5060;SDS011;2549;52.128;21.068;2022-09-09T05:48:46;7.57;;;4.97;;
5060;SDS011;2549;52.128;21.068;2022-09-09T05:51:15;7.63;;;4.77;;
5060;SDS011;2549;52.128;21.068;2022-09-09T05:53:47;13.67;;;4.33;;
5060;SDS011;2549;52.128;21.068;2022-09-09T05:56:16;6.27;;;4.90;;
5060;SDS011;2549;52.128;21.068;2022-09-09T05:58:48;6.93;;;5.60;;
5060;SDS011;2549;52.128;21.068;2022-09-09T06:01:16;6.80;;;4.50;;
5060;SDS011;2549;52.128;21.068;2022-09-09T06:03:45;4.63;;;3.97;;
5060;SDS011;2549;52.128;21.068;2022-09-09T06:06:14;10.20;;;6.37;;
5060;SDS011;2549;52.128;21.068;2022-09-09T06:08:44;6.47;;;4.80;;
5060;SDS011;2549;52.128;21.068;2022-09-09T06:11:15;6.30;;;4.40;;
5060;SDS011;2549;52.128;21.068;2022-09-09T06:13:45;7.17;;;4.53;;
5060;SDS011;2549;52.128;21.068;2022-09-09T06:16:12;12.00;;;4.60;;
5060;SDS011;2549;52.128;21.068;2022-09-09T06:18:41;4.87;;;4.40;;
5060;SDS011;2549;52.128;21.068;2022-09-09T06:21:09;6.13;;;5.30;;
5060;SDS011;2549;52.128;21.068;2022-09-09T06:23:42;6.00;;;5.00;;
5060;SDS011;2549;52.128;21.068;2022-09-09T06:28:44;7.33;;;5.07;;
5060;SDS011;2549;52.128;21.068;2022-09-09T06:31:12;5.30;;;4.80;;
5060;SDS011;2549;52.128;21.068;2022-09-09T06:33:41;8.90;;;5.40;;
5060;SDS011;2549;52.128;21.068;2022-09-09T06:36:16;7.80;;;5.77;;
5060;SDS011;2549;52.128;21.068;2022-09-09T06:38:44;5.40;;;4.90;;
5060;SDS011;2549;52.128;21.068;2022-09-09T06:41:13;6.20;;;5.30;;
5060;SDS011;2549;52.128;21.068;2022-09-09T06:43:41;6.60;;;5.80;;
5060;SDS011;2549;52.128;21.068;2022-09-09T06:46:11;11.43;;;6.03;;
5060;SDS011;2549;52.128;21.068;2022-09-09T06:48:43;6.23;;;5.20;;
5060;SDS011;2549;52.128;21.068;2022-09-09T06:51:13;8.83;;;5.70;;
5060;SDS011;2549;52.128;21.068;2022-09-09T06:53:43;8.03;;;7.00;;
5060;SDS011;2549;52.128;21.068;2022-09-09T06:58:43;49.67;;;9.00;;
5060;SDS011;2549;52.128;21.068;2022-09-09T07:01:14;8.37;;;5.97;;
5060;SDS011;2549;52.128;21.068;2022-09-09T07:03:45;9.33;;;5.53;;
5060;SDS011;2549;52.128;21.068;2022-09-09T07:06:15;7.87;;;6.03;;
5060;SDS011;2549;52.128;21.068;2022-09-09T07:08:43;12.00;;;7.00;;
5060;SDS011;2549;52.128;21.068;2022-09-09T07:11:22;7.37;;;6.40;;
5060;SDS011;2549;52.128;21.068;2022-09-09T07:13:53;7.63;;;6.37;;
5060;SDS011;2549;52.128;21.068;2022-09-09T07:16:21;8.93;;;6.40;;
5060;SDS011;2549;52.128;21.068;2022-09-09T07:18:51;8.87;;;5.93;;
5060;SDS011;2549;52.128;21.068;2022-09-09T07:21:21;9.27;;;6.70;;
5060;SDS011;2549;52.128;21.068;2022-09-09T07:23:48;8.50;;;6.17;;
5060;SDS011;2549;52.128;21.068;2022-09-09T07:26:18;9.23;;;6.50;;
5060;SDS011;2549;52.128;21.068;2022-09-09T07:28:48;7.70;;;6.43;;
5060;SDS011;2549;52.128;21.068;2022-09-09T07:31:16;8.10;;;6.77;;
5060;SDS011;2549;52.128;21.068;2022-09-09T07:33:45;11.20;;;7.13;;
5060;SDS011;2549;52.128;21.068;2022-09-09T07:36:13;10.93;;;6.63;;
5060;SDS011;2549;52.128;21.068;2022-09-09T07:38:52;8.03;;;6.90;;
5060;SDS011;2549;52.128;21.068;2022-09-09T07:41:23;6.90;;;6.13;;
5060;SDS011;2549;52.128;21.068;2022-09-09T07:43:54;10.83;;;6.50;;
5060;SDS011;2549;52.128;21.068;2022-09-09T07:46:22;13.00;;;6.73;;
5060;SDS011;2549;52.128;21.068;2022-09-09T07:48:52;10.90;;;7.33;;
5060;SDS011;2549;52.128;21.068;2022-09-09T07:51:24;10.13;;;6.77;;
5060;SDS011;2549;52.128;21.068;2022-09-09T07:53:55;9.60;;;7.00;;
5060;SDS011;2549;52.128;21.068;2022-09-09T07:56:28;8.47;;;6.90;;
5060;SDS011;2549;52.128;21.068;2022-09-09T07:58:56;10.53;;;6.87;;
5060;SDS011;2549;52.128;21.068;2022-09-09T08:06:28;10.13;;;7.37;;
5060;SDS011;2549;52.128;21.068;2022-09-09T08:08:57;10.20;;;6.90;;
5060;SDS011;2549;52.128;21.068;2022-09-09T08:11:25;10.23;;;6.60;;
5060;SDS011;2549;52.128;21.068;2022-09-09T08:13:54;10.20;;;7.80;;
5060;SDS011;2549;52.128;21.068;2022-09-09T08:16:31;8.90;;;6.60;;
5060;SDS011;2549;52.128;21.068;2022-09-09T08:19:00;9.13;;;6.93;;
5060;SDS011;2549;52.128;21.068;2022-09-09T08:21:27;14.60;;;7.80;;
5060;SDS011;2549;52.128;21.068;2022-09-09T08:23:56;13.63;;;7.90;;
5060;SDS011;2549;52.128;21.068;2022-09-09T08:26:28;11.00;;;8.90;;
5060;SDS011;2549;52.128;21.068;2022-09-09T08:28:58;13.60;;;8.40;;
5060;SDS011;2549;52.128;21.068;2022-09-09T08:31:33;10.90;;;8.40;;
5060;SDS011;2549;52.128;21.068;2022-09-09T08:34:01;12.60;;;9.57;;
5060;SDS011;2549;52.128;21.068;2022-09-09T08:36:30;11.30;;;8.80;;
5060;SDS011;2549;52.128;21.068;2022-09-09T08:39:00;13.73;;;9.27;;
5060;SDS011;2549;52.128;21.068;2022-09-09T08:41:43;10.20;;;8.00;;
5060;SDS011;2549;52.128;21.068;2022-09-09T08:47:20;12.90;;;8.13;;
5060;SDS011;2549;52.128;21.068;2022-09-09T08:55:51;12.90;;;8.90;;
5060;SDS011;2549;52.128;21.068;2022-09-09T08:58:30;13.90;;;9.50;;
5060;SDS011;2549;52.128;21.068;2022-09-09T09:03:51;18.73;;;9.00;;
5060;SDS011;2549;52.128;21.068;2022-09-09T09:11:47;18.13;;;10.07;;
5060;SDS011;2549;52.128;21.068;2022-09-09T09:14:17;17.03;;;10.70;;
5060;SDS011;2549;52.128;21.068;2022-09-09T09:16:52;21.80;;;10.87;;
5060;SDS011;2549;52.128;21.068;2022-09-09T09:19:23;18.40;;;9.40;;
5060;SDS011;2549;52.128;21.068;2022-09-09T09:24:46;19.90;;;10.40;;
5060;SDS011;2549;52.128;21.068;2022-09-09T09:27:16;16.40;;;10.17;;
5060;SDS011;2549;52.128;21.068;2022-09-09T09:29:52;17.57;;;9.23;;
5060;SDS011;2549;52.128;21.068;2022-09-09T09:32:47;24.90;;;11.40;;
5060;SDS011;2549;52.128;21.068;2022-09-09T09:35:16;18.47;;;10.37;;
5060;SDS011;2549;52.128;21.068;2022-09-09T09:37:43;15.27;;;9.40;;
5060;SDS011;2549;52.128;21.068;2022-09-09T09:40:31;20.07;;;10.30;;
5060;SDS011;2549;52.128;21.068;2022-09-09T09:42:59;18.73;;;11.07;;
5060;SDS011;2549;52.128;21.068;2022-09-09T09:45:28;20.47;;;11.43;;
5060;SDS011;2549;52.128;21.068;2022-09-09T09:48:05;23.50;;;11.53;;
5060;SDS011;2549;52.128;21.068;2022-09-09T09:50:55;22.33;;;12.10;;
5060;SDS011;2549;52.128;21.068;2022-09-09T09:53:28;21.37;;;11.70;;
5060;SDS011;2549;52.128;21.068;2022-09-09T09:55:58;21.03;;;11.50;;
5060;SDS011;2549;52.128;21.068;2022-09-09T09:58:29;23.00;;;11.93;;
5060;SDS011;2549;52.128;21.068;2022-09-09T10:01:00;21.30;;;12.53;;
5060;SDS011;2549;52.128;21.068;2022-09-09T10:03:31;23.40;;;12.40;;
5060;SDS011;2549;52.128;21.068;2022-09-09T10:06:03;24.67;;;12.00;;
5060;SDS011;2549;52.128;21.068;2022-09-09T10:08:33;33.77;;;15.07;;
5060;SDS011;2549;52.128;21.068;2022-09-09T10:18:58;26.13;;;14.87;;
5060;SDS011;2549;52.128;21.068;2022-09-09T10:24:44;25.03;;;14.47;;
5060;SDS011;2549;52.128;21.068;2022-09-09T10:27:40;31.00;;;14.43;;
5060;SDS011;2549;52.128;21.068;2022-09-09T10:32:48;31.10;;;15.20;;
5060;SDS011;2549;52.128;21.068;2022-09-09T10:46:41;20.80;;;13.63;;
5060;SDS011;2549;52.128;21.068;2022-09-09T10:49:33;25.97;;;13.80;;
5060;SDS011;2549;52.128;21.068;2022-09-09T10:52:21;26.10;;;14.30;;
5060;SDS011;2549;52.128;21.068;2022-09-09T10:57:38;24.27;;;14.53;;
5060;SDS011;2549;52.128;21.068;2022-09-09T11:00:10;30.77;;;15.70;;
5060;SDS011;2549;52.128;21.068;2022-09-09T11:03:09;35.83;;;14.40;;
5060;SDS011;2549;52.128;21.068;2022-09-09T11:05:46;29.40;;;15.57;;
5060;SDS011;2549;52.128;21.068;2022-09-09T11:08:36;28.37;;;16.20;;
5060;SDS011;2549;52.128;21.068;2022-09-09T11:14:01;27.80;;;16.80;;
5060;SDS011;2549;52.128;21.068;2022-09-09T11:16:41;35.13;;;16.90;;
5060;SDS011;2549;52.128;21.068;2022-09-09T11:19:21;35.53;;;17.53;;
5060;SDS011;2549;52.128;21.068;2022-09-09T11:22:46;42.93;;;18.23;;
5060;SDS011;2549;52.128;21.068;2022-09-09T11:25:10;28.50;;;17.53;;
5060;SDS011;2549;52.128;21.068;2022-09-09T11:27:53;33.17;;;17.30;;
5060;SDS011;2549;52.128;21.068;2022-09-09T11:30:25;30.97;;;17.20;;
5060;SDS011;2549;52.128;21.068;2022-09-09T11:36:04;34.57;;;18.50;;
5060;SDS011;2549;52.128;21.068;2022-09-09T11:38:45;40.23;;;18.10;;
5060;SDS011;2549;52.128;21.068;2022-09-09T11:41:20;34.43;;;19.53;;
5060;SDS011;2549;52.128;21.068;2022-09-09T11:46:15;32.07;;;18.60;;
5060;SDS011;2549;52.128;21.068;2022-09-09T11:48:44;39.63;;;19.23;;
5060;SDS011;2549;52.128;21.068;2022-09-09T11:53:54;44.77;;;19.87;;
5060;SDS011;2549;52.128;21.068;2022-09-09T11:56:33;34.40;;;19.60;;
5060;SDS011;2549;52.128;21.068;2022-09-09T12:02:01;37.70;;;19.10;;
5060;SDS011;2549;52.128;21.068;2022-09-09T12:04:39;42.70;;;20.13;;
5060;SDS011;2549;52.128;21.068;2022-09-09T12:14:42;39.90;;;19.67;;
5060;SDS011;2549;52.128;21.068;2022-09-09T12:17:28;40.00;;;21.10;;
5060;SDS011;2549;52.128;21.068;2022-09-09T12:20:40;45.50;;;21.00;;
5060;SDS011;2549;52.128;21.068;2022-09-09T12:30:40;38.97;;;19.90;;
5060;SDS011;2549;52.128;21.068;2022-09-09T12:33:33;40.50;;;19.93;;
5060;SDS011;2549;52.128;21.068;2022-09-09T12:36:02;38.17;;;19.53;;
5060;SDS011;2549;52.128;21.068;2022-09-09T12:38:36;43.23;;;20.37;;
5060;SDS011;2549;52.128;21.068;2022-09-09T12:41:05;41.23;;;20.87;;
5060;SDS011;2549;52.128;21.068;2022-09-09T12:43:32;43.83;;;20.13;;
5060;SDS011;2549;52.128;21.068;2022-09-09T12:46:00;42.60;;;21.43;;
5060;SDS011;2549;52.128;21.068;2022-09-09T12:48:32;44.10;;;21.23;;
5060;SDS011;2549;52.128;21.068;2022-09-09T12:51:05;39.43;;;21.07;;
5060;SDS011;2549;52.128;21.068;2022-09-09T12:53:44;39.07;;;21.23;;
5060;SDS011;2549;52.128;21.068;2022-09-09T12:56:19;48.73;;;22.80;;
5060;SDS011;2549;52.128;21.068;2022-09-09T12:58:47;48.10;;;22.63;;
5060;SDS011;2549;52.128;21.068;2022-09-09T13:01:22;39.17;;;21.80;;
5060;SDS011;2549;52.128;21.068;2022-09-09T13:03:52;42.60;;;21.70;;
5060;SDS011;2549;52.128;21.068;2022-09-09T13:06:20;49.67;;;23.33;;
5060;SDS011;2549;52.128;21.068;2022-09-09T13:08:54;49.20;;;22.07;;
5060;SDS011;2549;52.128;21.068;2022-09-09T13:11:27;56.53;;;22.57;;
5060;SDS011;2549;52.128;21.068;2022-09-09T13:13:56;40.63;;;19.53;;
5060;SDS011;2549;52.128;21.068;2022-09-09T13:16:34;40.13;;;21.17;;
5060;SDS011;2549;52.128;21.068;2022-09-09T13:19:09;46.17;;;20.23;;
5060;SDS011;2549;52.128;21.068;2022-09-09T13:21:40;46.57;;;20.67;;
5060;SDS011;2549;52.128;21.068;2022-09-09T13:24:28;47.37;;;21.17;;
5060;SDS011;2549;52.128;21.068;2022-09-09T13:27:21;41.00;;;20.30;;
5060;SDS011;2549;52.128;21.068;2022-09-09T13:29:54;42.30;;;20.40;;
5060;SDS011;2549;52.128;21.068;2022-09-09T13:32:23;37.43;;;19.30;;
5060;SDS011;2549;52.128;21.068;2022-09-09T13:34:59;51.20;;;19.47;;
5060;SDS011;2549;52.128;21.068;2022-09-09T13:37:37;40.73;;;20.20;;
5060;SDS011;2549;52.128;21.068;2022-09-09T13:40:05;37.13;;;18.93;;
5060;SDS011;2549;52.128;21.068;2022-09-09T13:42:34;34.13;;;16.60;;
5060;SDS011;2549;52.128;21.068;2022-09-09T13:45:05;40.87;;;18.40;;
5060;SDS011;2549;52.128;21.068;2022-09-09T13:47:33;34.90;;;17.40;;
5060;SDS011;2549;52.128;21.068;2022-09-09T13:52:47;40.07;;;18.60;;
5060;SDS011;2549;52.128;21.068;2022-09-09T13:55:17;24.67;;;15.50;;
5060;SDS011;2549;52.128;21.068;2022-09-09T13:57:54;34.30;;;17.27;;
5060;SDS011;2549;52.128;21.068;2022-09-09T14:00:29;38.97;;;18.77;;
5060;SDS011;2549;52.128;21.068;2022-09-09T14:02:57;36.20;;;18.07;;
5060;SDS011;2549;52.128;21.068;2022-09-09T14:05:27;38.93;;;17.90;;
5060;SDS011;2549;52.128;21.068;2022-09-09T14:07:58;40.20;;;18.10;;
5060;SDS011;2549;52.128;21.068;2022-09-09T14:10:26;46.37;;;18.63;;
5060;SDS011;2549;52.128;21.068;2022-09-09T14:12:53;48.80;;;19.13;;
5060;SDS011;2549;52.128;21.068;2022-09-09T14:15:20;38.03;;;17.27;;
5060;SDS011;2549;52.128;21.068;2022-09-09T14:17:48;37.93;;;18.10;;
5060;SDS011;2549;52.128;21.068;2022-09-09T14:20:15;36.03;;;17.50;;
5060;SDS011;2549;52.128;21.068;2022-09-09T14:22:43;35.83;;;17.20;;
5060;SDS011;2549;52.128;21.068;2022-09-09T14:25:11;45.13;;;17.90;;
5060;SDS011;2549;52.128;21.068;2022-09-09T14:27:39;39.63;;;17.93;;
5060;SDS011;2549;52.128;21.068;2022-09-09T14:30:07;38.70;;;17.37;;
5060;SDS011;2549;52.128;21.068;2022-09-09T14:32:34;48.67;;;17.57;;
5060;SDS011;2549;52.128;21.068;2022-09-09T14:35:01;37.67;;;17.70;;
5060;SDS011;2549;52.128;21.068;2022-09-09T14:37:28;36.17;;;18.77;;
5060;SDS011;2549;52.128;21.068;2022-09-09T14:39:57;38.10;;;18.97;;
5060;SDS011;2549;52.128;21.068;2022-09-09T14:42:24;36.57;;;19.97;;
5060;SDS011;2549;52.128;21.068;2022-09-09T14:44:52;44.53;;;18.47;;
5060;SDS011;2549;52.128;21.068;2022-09-09T14:47:19;46.90;;;17.70;;
5060;SDS011;2549;52.128;21.068;2022-09-09T14:49:46;41.80;;;17.90;;
5060;SDS011;2549;52.128;21.068;2022-09-09T14:52:16;41.30;;;18.83;;
5060;SDS011;2549;52.128;21.068;2022-09-09T14:54:43;45.67;;;18.77;;
5060;SDS011;2549;52.128;21.068;2022-09-09T14:57:10;42.80;;;19.70;;
5060;SDS011;2549;52.128;21.068;2022-09-09T14:59:36;44.47;;;19.00;;
5060;SDS011;2549;52.128;21.068;2022-09-09T15:02:03;43.13;;;19.07;;
5060;SDS011;2549;52.128;21.068;2022-09-09T15:04:31;38.90;;;17.60;;
5060;SDS011;2549;52.128;21.068;2022-09-09T15:06:58;31.87;;;16.53;;
5060;SDS011;2549;52.128;21.068;2022-09-09T15:09:25;34.60;;;17.43;;
5060;SDS011;2549;52.128;21.068;2022-09-09T15:11:52;36.13;;;16.70;;
5060;SDS011;2549;52.128;21.068;2022-09-09T15:14:19;34.97;;;18.03;;
5060;SDS011;2549;52.128;21.068;2022-09-09T15:16:50;44.00;;;18.70;;
5060;SDS011;2549;52.128;21.068;2022-09-09T15:19:17;42.63;;;18.67;;
5060;SDS011;2549;52.128;21.068;2022-09-09T15:21:44;46.00;;;19.47;;
5060;SDS011;2549;52.128;21.068;2022-09-09T15:24:11;34.57;;;17.80;;
5060;SDS011;2549;52.128;21.068;2022-09-09T15:26:39;38.77;;;18.03;;
5060;SDS011;2549;52.128;21.068;2022-09-09T15:29:07;41.13;;;18.13;;
5060;SDS011;2549;52.128;21.068;2022-09-09T15:31:34;34.83;;;17.87;;
5060;SDS011;2549;52.128;21.068;2022-09-09T15:34:02;31.40;;;17.23;;
5060;SDS011;2549;52.128;21.068;2022-09-09T15:39:10;31.97;;;17.53;;
5060;SDS011;2549;52.128;21.068;2022-09-09T15:41:39;41.63;;;19.00;;
5060;SDS011;2549;52.128;21.068;2022-09-09T15:44:06;43.17;;;19.23;;
5060;SDS011;2549;52.128;21.068;2022-09-09T15:46:33;40.50;;;18.03;;
5060;SDS011;2549;52.128;21.068;2022-09-09T15:51:31;43.53;;;19.47;;
5060;SDS011;2549;52.128;21.068;2022-09-09T15:54:15;47.13;;;19.17;;
5060;SDS011;2549;52.128;21.068;2022-09-09T15:56:45;34.13;;;18.00;;
5060;SDS011;2549;52.128;21.068;2022-09-09T15:59:15;41.80;;;19.20;;
5060;SDS011;2549;52.128;21.068;2022-09-09T16:01:42;39.00;;;18.30;;
5060;SDS011;2549;52.128;21.068;2022-09-09T16:04:10;40.30;;;17.00;;
5060;SDS011;2549;52.128;21.068;2022-09-09T16:06:38;38.90;;;19.37;;
5060;SDS011;2549;52.128;21.068;2022-09-09T16:09:05;37.03;;;18.10;;
5060;SDS011;2549;52.128;21.068;2022-09-09T16:11:35;30.87;;;18.60;;
5060;SDS011;2549;52.128;21.068;2022-09-09T16:14:03;38.23;;;18.17;;
5060;SDS011;2549;52.128;21.068;2022-09-09T16:16:32;31.50;;;17.67;;
5060;SDS011;2549;52.128;21.068;2022-09-09T16:19:11;35.40;;;17.90;;
5060;SDS011;2549;52.128;21.068;2022-09-09T16:21:40;35.47;;;17.37;;
5060;SDS011;2549;52.128;21.068;2022-09-09T16:24:12;30.63;;;17.23;;
5060;SDS011;2549;52.128;21.068;2022-09-09T16:26:42;26.97;;;15.93;;
5060;SDS011;2549;52.128;21.068;2022-09-09T16:29:12;35.60;;;17.70;;
5060;SDS011;2549;52.128;21.068;2022-09-09T16:31:40;35.47;;;18.20;;
5060;SDS011;2549;52.128;21.068;2022-09-09T16:34:08;32.53;;;17.87;;
5060;SDS011;2549;52.128;21.068;2022-09-09T16:36:36;34.07;;;17.87;;
5060;SDS011;2549;52.128;21.068;2022-09-09T16:39:06;36.93;;;18.07;;
5060;SDS011;2549;52.128;21.068;2022-09-09T16:41:35;32.43;;;16.50;;
5060;SDS011;2549;52.128;21.068;2022-09-09T16:44:04;31.07;;;16.17;;
5060;SDS011;2549;52.128;21.068;2022-09-09T16:46:33;32.90;;;17.70;;
5060;SDS011;2549;52.128;21.068;2022-09-09T16:49:06;37.13;;;16.90;;
5060;SDS011;2549;52.128;21.068;2022-09-09T16:51:35;33.23;;;17.90;;
5060;SDS011;2549;52.128;21.068;2022-09-09T16:54:13;34.17;;;18.63;;
5060;SDS011;2549;52.128;21.068;2022-09-09T16:56:43;39.10;;;18.13;;
5060;SDS011;2549;52.128;21.068;2022-09-09T16:59:12;37.03;;;19.37;;
5060;SDS011;2549;52.128;21.068;2022-09-09T17:01:41;28.03;;;17.13;;
5060;SDS011;2549;52.128;21.068;2022-09-09T17:04:10;30.00;;;16.63;;
5060;SDS011;2549;52.128;21.068;2022-09-09T17:06:47;31.90;;;16.67;;
5060;SDS011;2549;52.128;21.068;2022-09-09T17:09:18;32.53;;;16.73;;
5060;SDS011;2549;52.128;21.068;2022-09-09T17:11:46;33.90;;;18.60;;
5060;SDS011;2549;52.128;21.068;2022-09-09T17:14:15;36.10;;;16.90;;
5060;SDS011;2549;52.128;21.068;2022-09-09T17:16:44;40.77;;;17.90;;
5060;SDS011;2549;52.128;21.068;2022-09-09T17:19:11;30.23;;;16.93;;
5060;SDS011;2549;52.128;21.068;2022-09-09T17:21:38;33.93;;;17.07;;
5060;SDS011;2549;52.128;21.068;2022-09-09T17:24:26;31.83;;;17.67;;
5060;SDS011;2549;52.128;21.068;2022-09-09T17:26:55;35.20;;;16.80;;
5060;SDS011;2549;52.128;21.068;2022-09-09T17:29:23;30.43;;;18.17;;
5060;SDS011;2549;52.128;21.068;2022-09-09T17:31:51;31.10;;;16.87;;
5060;SDS011;2549;52.128;21.068;2022-09-09T17:34:18;38.93;;;17.63;;
5060;SDS011;2549;52.128;21.068;2022-09-09T17:36:44;32.77;;;17.93;;